Language selection

Weather shortcuts

Hecate Strait: Past 24 Hour Conditions

 

South Hecate Strait - 46185

07:00 PM PDT 19 May 2024Buoy position: 52.85N 130.08W
Disclaimer

This table is a summary of hourly weather conditions for the past 24 hours.
Please note that these observations might not always be representative of weather conditions over their associated marine area.

Date / Time
(PDT)
Wind(knots) Wave height(m) Wave period(s) Pressure(kPa) Air tempC) Water tempC)
19 May 2024
19:00 N 7 gusts 9 0.70 19.7 102.8 10 11
18:00 NNE 6 gusts 8 0.70 19.7 102.8 10 11
17:00 NE 5 gusts 8 0.80 19.7 102.8 10 11
16:00 NE 6 gusts 9 0.80 19.7 102.9 10 11
15:00 ENE 6 gusts 9 0.90 4.8 102.8 10 11
14:00 NE 8 gusts 10 1.00 19.7 102.8 9 11
13:00 NNE 9 gusts 11 1.00 19.7 102.8 9 11
12:00 ENE 9 gusts 11 1.00 5.3 102.8 9 11
11:00 NNE 12 gusts 15 1.10 5.7 102.7 9 11
10:00 NE 12 gusts 13 1.20 5.8 102.7 9 11
9:00 NNE 16 gusts 18 1.40 6.1 102.7 9 10
8:00 NE 16 gusts 19 1.40 6.1 102.6 9 10
7:00 NNE 17 gusts 20 1.50 6.0 102.6 9 10
6:00 ENE 17 gusts 21 1.60 6.0 102.5 9 10
5:00 NE 19 gusts 23 1.50 6.2 102.5 9 10
4:00 NE 19 gusts 21 1.60 5.8 102.4 9 10
3:00 E 18 gusts 22 1.60 5.8 102.4 9 10
2:00 E 20 gusts 23 1.50 5.2 102.4 9 11
1:00 NE 18 gusts 22 1.10 4.6 102.3 9 10
0:00 NE 16 gusts 18 1.00 4.7 102.3 9 11
18 May 2024
23:00 NE 14 gusts 16 0.90 4.7 102.3 9 11
22:00 NNE 15 gusts 17 0.90 4.2 102.3 9 11
21:00 NNE 16 gusts 20 0.80 4.4 102.2 9 11
20:00 N 16 gusts 19 0.80 4.1 102.2 9 11
19:00 NNE 14 gusts 17 0.80 4.0 102.2 9 11

Zoom-in to make a selection

Map of Pacific - North Coast marine weather areas Middle Nomad - 46004 South Nomad - 46036 Dixon Entrance Central - 46145 South Moresby - 46147 Nanakwa Shoal - 46181 North Hecate Strait - 46183 North Nomad - 46184 South Hecate Strait - 46185 West Sea Otter - 46204 West Dixon Entrance - 46205 East Dellwood - 46207 West Moresby - 46208 Sartine Island Cape St.James Kindakun Rocks Langara Island Masset Municipal Airport Rose Spit Sandspit Airport Bella Bella Airport Bella Coola Airport Bonilla Island Cathedral Point Cumshewa Island Grey Islet Holland Rock Lucy Islands Lightstation Prince Rupert Airport
Legend:
buoy Buoy
land station Land Station

Pacific - North Coast Area

Another Region

Date modified: